sensor_id;sensor_type;location;lat;lon;timestamp;P1;durP1;ratioP1;P2;durP2;ratioP2
38053;SDS011;23859;50.672;7.164;2023-04-16T00:00:51;43.08;;;22.42;;
38053;SDS011;23859;50.672;7.164;2023-04-16T00:03:17;48.88;;;23.95;;
38053;SDS011;23859;50.672;7.164;2023-04-16T00:05:43;46.45;;;25.60;;
38053;SDS011;23859;50.672;7.164;2023-04-16T00:08:09;49.03;;;25.33;;
38053;SDS011;23859;50.672;7.164;2023-04-16T00:10:35;45.45;;;23.90;;
38053;SDS011;23859;50.672;7.164;2023-04-16T00:13:01;45.63;;;24.20;;
38053;SDS011;23859;50.672;7.164;2023-04-16T00:15:27;51.03;;;25.15;;
38053;SDS011;23859;50.672;7.164;2023-04-16T00:17:53;47.28;;;24.58;;
38053;SDS011;23859;50.672;7.164;2023-04-16T00:20:19;49.67;;;23.38;;
38053;SDS011;23859;50.672;7.164;2023-04-16T00:22:45;48.15;;;23.95;;
38053;SDS011;23859;50.672;7.164;2023-04-16T00:25:12;54.17;;;24.63;;
38053;SDS011;23859;50.672;7.164;2023-04-16T00:27:38;53.53;;;25.25;;
38053;SDS011;23859;50.672;7.164;2023-04-16T00:30:04;54.47;;;26.85;;
38053;SDS011;23859;50.672;7.164;2023-04-16T00:32:31;51.10;;;25.05;;
38053;SDS011;23859;50.672;7.164;2023-04-16T00:34:57;61.28;;;27.42;;
38053;SDS011;23859;50.672;7.164;2023-04-16T00:37:23;62.10;;;28.13;;
38053;SDS011;23859;50.672;7.164;2023-04-16T00:39:49;48.70;;;24.52;;
38053;SDS011;23859;50.672;7.164;2023-04-16T00:42:15;48.53;;;24.63;;
38053;SDS011;23859;50.672;7.164;2023-04-16T00:44:41;44.63;;;22.35;;
38053;SDS011;23859;50.672;7.164;2023-04-16T00:47:07;51.38;;;23.40;;
38053;SDS011;23859;50.672;7.164;2023-04-16T00:49:33;48.70;;;21.90;;
38053;SDS011;23859;50.672;7.164;2023-04-16T00:52:00;41.15;;;20.70;;
38053;SDS011;23859;50.672;7.164;2023-04-16T00:54:27;40.20;;;19.98;;
38053;SDS011;23859;50.672;7.164;2023-04-16T00:56:54;41.83;;;20.25;;
38053;SDS011;23859;50.672;7.164;2023-04-16T00:59:22;42.67;;;19.20;;
38053;SDS011;23859;50.672;7.164;2023-04-16T01:01:48;41.05;;;18.13;;
38053;SDS011;23859;50.672;7.164;2023-04-16T01:04:14;33.42;;;17.58;;
38053;SDS011;23859;50.672;7.164;2023-04-16T01:06:42;39.67;;;17.20;;
38053;SDS011;23859;50.672;7.164;2023-04-16T01:09:08;33.03;;;17.90;;
38053;SDS011;23859;50.672;7.164;2023-04-16T01:11:35;42.20;;;18.00;;
38053;SDS011;23859;50.672;7.164;2023-04-16T01:14:02;41.13;;;18.58;;
38053;SDS011;23859;50.672;7.164;2023-04-16T01:16:28;35.38;;;17.67;;
38053;SDS011;23859;50.672;7.164;2023-04-16T01:18:54;36.08;;;17.17;;
38053;SDS011;23859;50.672;7.164;2023-04-16T01:21:20;36.50;;;19.85;;
38053;SDS011;23859;50.672;7.164;2023-04-16T01:23:46;34.05;;;18.20;;
38053;SDS011;23859;50.672;7.164;2023-04-16T01:26:12;34.08;;;17.98;;
38053;SDS011;23859;50.672;7.164;2023-04-16T01:28:39;40.03;;;20.70;;
38053;SDS011;23859;50.672;7.164;2023-04-16T01:31:05;38.97;;;18.95;;
38053;SDS011;23859;50.672;7.164;2023-04-16T01:33:31;35.90;;;18.98;;
38053;SDS011;23859;50.672;7.164;2023-04-16T01:35:57;42.28;;;19.40;;
38053;SDS011;23859;50.672;7.164;2023-04-16T01:38:23;35.42;;;19.73;;
38053;SDS011;23859;50.672;7.164;2023-04-16T01:40:49;34.70;;;18.75;;
38053;SDS011;23859;50.672;7.164;2023-04-16T01:43:19;44.38;;;21.55;;
38053;SDS011;23859;50.672;7.164;2023-04-16T01:45:45;46.60;;;20.98;;
38053;SDS011;23859;50.672;7.164;2023-04-16T01:48:11;40.53;;;19.90;;
38053;SDS011;23859;50.672;7.164;2023-04-16T01:50:37;37.65;;;19.08;;
38053;SDS011;23859;50.672;7.164;2023-04-16T01:53:03;42.67;;;21.40;;
38053;SDS011;23859;50.672;7.164;2023-04-16T01:55:30;38.03;;;20.63;;
38053;SDS011;23859;50.672;7.164;2023-04-16T01:57:57;38.05;;;21.40;;
38053;SDS011;23859;50.672;7.164;2023-04-16T02:00:23;41.58;;;21.42;;
38053;SDS011;23859;50.672;7.164;2023-04-16T02:02:49;42.08;;;21.27;;
38053;SDS011;23859;50.672;7.164;2023-04-16T02:05:15;47.20;;;22.23;;
38053;SDS011;23859;50.672;7.164;2023-04-16T02:07:41;51.67;;;22.60;;
38053;SDS011;23859;50.672;7.164;2023-04-16T02:10:07;46.88;;;20.50;;
38053;SDS011;23859;50.672;7.164;2023-04-16T02:12:34;47.35;;;22.67;;
38053;SDS011;23859;50.672;7.164;2023-04-16T02:15:00;48.00;;;22.35;;
38053;SDS011;23859;50.672;7.164;2023-04-16T02:17:26;42.85;;;22.77;;
38053;SDS011;23859;50.672;7.164;2023-04-16T02:19:52;42.10;;;22.23;;
38053;SDS011;23859;50.672;7.164;2023-04-16T02:22:18;47.78;;;22.52;;
38053;SDS011;23859;50.672;7.164;2023-04-16T02:24:44;51.03;;;22.75;;
38053;SDS011;23859;50.672;7.164;2023-04-16T02:27:10;51.67;;;23.52;;
38053;SDS011;23859;50.672;7.164;2023-04-16T02:29:36;48.85;;;23.58;;
38053;SDS011;23859;50.672;7.164;2023-04-16T02:32:02;51.17;;;23.95;;
38053;SDS011;23859;50.672;7.164;2023-04-16T02:34:29;51.67;;;22.73;;
38053;SDS011;23859;50.672;7.164;2023-04-16T02:36:55;46.67;;;23.25;;
38053;SDS011;23859;50.672;7.164;2023-04-16T02:39:22;44.63;;;22.10;;
38053;SDS011;23859;50.672;7.164;2023-04-16T02:41:48;45.63;;;23.67;;
38053;SDS011;23859;50.672;7.164;2023-04-16T02:44:14;56.17;;;26.08;;
38053;SDS011;23859;50.672;7.164;2023-04-16T02:46:40;46.38;;;22.80;;
38053;SDS011;23859;50.672;7.164;2023-04-16T02:49:06;49.90;;;25.02;;
38053;SDS011;23859;50.672;7.164;2023-04-16T02:51:32;53.63;;;25.17;;
38053;SDS011;23859;50.672;7.164;2023-04-16T02:53:58;54.70;;;25.83;;
38053;SDS011;23859;50.672;7.164;2023-04-16T02:56:24;44.90;;;23.52;;
38053;SDS011;23859;50.672;7.164;2023-04-16T02:58:50;48.72;;;24.10;;
38053;SDS011;23859;50.672;7.164;2023-04-16T03:01:17;48.13;;;23.75;;
38053;SDS011;23859;50.672;7.164;2023-04-16T03:03:43;49.30;;;23.30;;
38053;SDS011;23859;50.672;7.164;2023-04-16T03:06:09;48.10;;;24.90;;
38053;SDS011;23859;50.672;7.164;2023-04-16T03:08:35;51.25;;;24.85;;
38053;SDS011;23859;50.672;7.164;2023-04-16T03:11:01;50.60;;;25.55;;
38053;SDS011;23859;50.672;7.164;2023-04-16T03:13:27;52.15;;;24.77;;
38053;SDS011;23859;50.672;7.164;2023-04-16T03:15:53;55.08;;;26.00;;
38053;SDS011;23859;50.672;7.164;2023-04-16T03:18:20;53.97;;;25.85;;
38053;SDS011;23859;50.672;7.164;2023-04-16T03:20:50;56.60;;;27.08;;
38053;SDS011;23859;50.672;7.164;2023-04-16T03:23:16;53.30;;;26.55;;
38053;SDS011;23859;50.672;7.164;2023-04-16T03:25:42;58.05;;;27.55;;
38053;SDS011;23859;50.672;7.164;2023-04-16T03:28:10;62.22;;;28.63;;
38053;SDS011;23859;50.672;7.164;2023-04-16T03:30:36;62.25;;;28.60;;
38053;SDS011;23859;50.672;7.164;2023-04-16T03:33:02;61.35;;;29.92;;
38053;SDS011;23859;50.672;7.164;2023-04-16T03:35:28;68.65;;;31.65;;
38053;SDS011;23859;50.672;7.164;2023-04-16T03:37:55;62.88;;;29.20;;
38053;SDS011;23859;50.672;7.164;2023-04-16T03:40:21;61.88;;;30.15;;
38053;SDS011;23859;50.672;7.164;2023-04-16T03:42:47;71.13;;;30.88;;
38053;SDS011;23859;50.672;7.164;2023-04-16T03:45:13;64.80;;;29.92;;
38053;SDS011;23859;50.672;7.164;2023-04-16T03:47:39;59.08;;;27.38;;
38053;SDS011;23859;50.672;7.164;2023-04-16T03:50:06;61.47;;;27.42;;
38053;SDS011;23859;50.672;7.164;2023-04-16T03:52:32;68.47;;;29.08;;
38053;SDS011;23859;50.672;7.164;2023-04-16T03:54:58;57.40;;;28.23;;
38053;SDS011;23859;50.672;7.164;2023-04-16T03:57:24;54.97;;;25.70;;
38053;SDS011;23859;50.672;7.164;2023-04-16T03:59:50;51.42;;;25.60;;
38053;SDS011;23859;50.672;7.164;2023-04-16T04:02:16;53.53;;;25.45;;
38053;SDS011;23859;50.672;7.164;2023-04-16T04:04:42;50.35;;;26.00;;
38053;SDS011;23859;50.672;7.164;2023-04-16T04:07:08;50.80;;;25.27;;
38053;SDS011;23859;50.672;7.164;2023-04-16T04:09:34;54.70;;;24.40;;
38053;SDS011;23859;50.672;7.164;2023-04-16T04:12:00;53.33;;;24.05;;
38053;SDS011;23859;50.672;7.164;2023-04-16T04:14:26;47.22;;;22.98;;
38053;SDS011;23859;50.672;7.164;2023-04-16T04:16:52;49.75;;;23.42;;
38053;SDS011;23859;50.672;7.164;2023-04-16T04:19:18;55.17;;;26.15;;
38053;SDS011;23859;50.672;7.164;2023-04-16T04:21:44;53.53;;;25.48;;
38053;SDS011;23859;50.672;7.164;2023-04-16T04:24:10;56.95;;;27.80;;
38053;SDS011;23859;50.672;7.164;2023-04-16T04:26:36;59.63;;;25.95;;
38053;SDS011;23859;50.672;7.164;2023-04-16T04:29:02;62.00;;;25.95;;
38053;SDS011;23859;50.672;7.164;2023-04-16T04:31:28;55.10;;;24.90;;
38053;SDS011;23859;50.672;7.164;2023-04-16T04:33:54;58.58;;;27.42;;
38053;SDS011;23859;50.672;7.164;2023-04-16T04:36:20;50.72;;;26.98;;
38053;SDS011;23859;50.672;7.164;2023-04-16T04:38:46;50.15;;;25.60;;
38053;SDS011;23859;50.672;7.164;2023-04-16T04:41:12;65.10;;;27.70;;
38053;SDS011;23859;50.672;7.164;2023-04-16T04:43:38;60.40;;;28.27;;
38053;SDS011;23859;50.672;7.164;2023-04-16T04:46:05;68.72;;;28.75;;
38053;SDS011;23859;50.672;7.164;2023-04-16T04:48:31;59.25;;;26.67;;
38053;SDS011;23859;50.672;7.164;2023-04-16T04:50:57;64.85;;;29.20;;
38053;SDS011;23859;50.672;7.164;2023-04-16T04:53:23;58.33;;;29.13;;
38053;SDS011;23859;50.672;7.164;2023-04-16T04:55:49;67.43;;;29.17;;
38053;SDS011;23859;50.672;7.164;2023-04-16T04:58:15;68.55;;;31.27;;
38053;SDS011;23859;50.672;7.164;2023-04-16T05:00:41;64.93;;;31.13;;
38053;SDS011;23859;50.672;7.164;2023-04-16T05:03:09;74.78;;;32.50;;
38053;SDS011;23859;50.672;7.164;2023-04-16T05:05:36;65.50;;;31.17;;
38053;SDS011;23859;50.672;7.164;2023-04-16T05:08:03;75.75;;;34.22;;
38053;SDS011;23859;50.672;7.164;2023-04-16T05:10:29;76.10;;;34.00;;
38053;SDS011;23859;50.672;7.164;2023-04-16T05:12:55;78.70;;;34.58;;
38053;SDS011;23859;50.672;7.164;2023-04-16T05:15:21;78.60;;;35.25;;
38053;SDS011;23859;50.672;7.164;2023-04-16T05:17:47;78.03;;;35.92;;
38053;SDS011;23859;50.672;7.164;2023-04-16T05:20:13;95.68;;;36.83;;
38053;SDS011;23859;50.672;7.164;2023-04-16T05:22:39;87.63;;;36.15;;
38053;SDS011;23859;50.672;7.164;2023-04-16T05:25:05;80.47;;;36.75;;
38053;SDS011;23859;50.672;7.164;2023-04-16T05:27:32;82.85;;;35.17;;
38053;SDS011;23859;50.672;7.164;2023-04-16T05:29:58;83.85;;;36.42;;
38053;SDS011;23859;50.672;7.164;2023-04-16T05:32:24;78.38;;;35.85;;
38053;SDS011;23859;50.672;7.164;2023-04-16T05:34:51;81.13;;;35.97;;
38053;SDS011;23859;50.672;7.164;2023-04-16T05:37:17;85.25;;;37.67;;
38053;SDS011;23859;50.672;7.164;2023-04-16T05:39:43;78.85;;;36.50;;
38053;SDS011;23859;50.672;7.164;2023-04-16T05:42:09;79.05;;;35.55;;
38053;SDS011;23859;50.672;7.164;2023-04-16T05:44:36;71.60;;;34.17;;
38053;SDS011;23859;50.672;7.164;2023-04-16T05:47:02;78.18;;;35.42;;
38053;SDS011;23859;50.672;7.164;2023-04-16T05:49:28;83.40;;;36.00;;
38053;SDS011;23859;50.672;7.164;2023-04-16T05:51:54;85.13;;;35.50;;
38053;SDS011;23859;50.672;7.164;2023-04-16T05:54:20;87.00;;;35.63;;
38053;SDS011;23859;50.672;7.164;2023-04-16T05:56:46;78.55;;;33.30;;
38053;SDS011;23859;50.672;7.164;2023-04-16T05:59:12;78.80;;;35.50;;
38053;SDS011;23859;50.672;7.164;2023-04-16T06:01:38;67.93;;;34.10;;
38053;SDS011;23859;50.672;7.164;2023-04-16T06:04:04;71.30;;;32.70;;
38053;SDS011;23859;50.672;7.164;2023-04-16T06:06:31;81.68;;;32.90;;
38053;SDS011;23859;50.672;7.164;2023-04-16T06:08:57;78.93;;;33.28;;
38053;SDS011;23859;50.672;7.164;2023-04-16T06:11:24;79.05;;;35.17;;
38053;SDS011;23859;50.672;7.164;2023-04-16T06:13:51;74.10;;;33.08;;
38053;SDS011;23859;50.672;7.164;2023-04-16T06:16:17;81.00;;;35.63;;
38053;SDS011;23859;50.672;7.164;2023-04-16T06:18:43;77.72;;;33.05;;
38053;SDS011;23859;50.672;7.164;2023-04-16T06:21:09;75.50;;;33.72;;
38053;SDS011;23859;50.672;7.164;2023-04-16T06:23:35;82.20;;;33.10;;
38053;SDS011;23859;50.672;7.164;2023-04-16T06:26:01;83.72;;;35.35;;
38053;SDS011;23859;50.672;7.164;2023-04-16T06:28:28;81.00;;;35.65;;
38053;SDS011;23859;50.672;7.164;2023-04-16T06:30:54;85.45;;;35.25;;
38053;SDS011;23859;50.672;7.164;2023-04-16T06:33:20;78.10;;;34.72;;
38053;SDS011;23859;50.672;7.164;2023-04-16T06:35:46;77.35;;;35.47;;
38053;SDS011;23859;50.672;7.164;2023-04-16T06:38:13;69.75;;;33.22;;
38053;SDS011;23859;50.672;7.164;2023-04-16T06:40:39;74.57;;;32.20;;
38053;SDS011;23859;50.672;7.164;2023-04-16T06:43:05;77.78;;;33.42;;
38053;SDS011;23859;50.672;7.164;2023-04-16T06:45:31;75.63;;;32.58;;
38053;SDS011;23859;50.672;7.164;2023-04-16T06:47:58;84.00;;;33.25;;
38053;SDS011;23859;50.672;7.164;2023-04-16T06:50:25;88.60;;;33.50;;
38053;SDS011;23859;50.672;7.164;2023-04-16T06:52:52;83.35;;;33.35;;
38053;SDS011;23859;50.672;7.164;2023-04-16T06:55:18;81.47;;;33.53;;
38053;SDS011;23859;50.672;7.164;2023-04-16T06:57:44;75.38;;;31.52;;
38053;SDS011;23859;50.672;7.164;2023-04-16T07:00:11;75.50;;;32.45;;
38053;SDS011;23859;50.672;7.164;2023-04-16T07:02:37;65.07;;;30.08;;
38053;SDS011;23859;50.672;7.164;2023-04-16T07:05:03;74.50;;;30.08;;
38053;SDS011;23859;50.672;7.164;2023-04-16T07:07:29;65.18;;;28.70;;
38053;SDS011;23859;50.672;7.164;2023-04-16T07:09:56;71.38;;;30.27;;
38053;SDS011;23859;50.672;7.164;2023-04-16T07:12:22;69.75;;;28.55;;
38053;SDS011;23859;50.672;7.164;2023-04-16T07:14:49;62.00;;;28.58;;
38053;SDS011;23859;50.672;7.164;2023-04-16T07:17:15;60.20;;;27.05;;
38053;SDS011;23859;50.672;7.164;2023-04-16T07:19:41;57.90;;;26.35;;
38053;SDS011;23859;50.672;7.164;2023-04-16T07:22:08;66.88;;;29.90;;
38053;SDS011;23859;50.672;7.164;2023-04-16T07:24:34;57.75;;;27.92;;
38053;SDS011;23859;50.672;7.164;2023-04-16T07:27:00;65.80;;;28.23;;
38053;SDS011;23859;50.672;7.164;2023-04-16T07:29:26;58.30;;;26.10;;
38053;SDS011;23859;50.672;7.164;2023-04-16T07:31:52;59.45;;;26.52;;
38053;SDS011;23859;50.672;7.164;2023-04-16T07:34:18;49.30;;;24.92;;
38053;SDS011;23859;50.672;7.164;2023-04-16T07:36:44;58.47;;;26.42;;
38053;SDS011;23859;50.672;7.164;2023-04-16T07:39:10;48.85;;;24.52;;
38053;SDS011;23859;50.672;7.164;2023-04-16T07:41:37;52.72;;;23.98;;
38053;SDS011;23859;50.672;7.164;2023-04-16T07:44:04;53.97;;;25.13;;
38053;SDS011;23859;50.672;7.164;2023-04-16T07:46:30;44.67;;;22.67;;
38053;SDS011;23859;50.672;7.164;2023-04-16T07:48:56;46.67;;;22.95;;
38053;SDS011;23859;50.672;7.164;2023-04-16T07:51:22;42.00;;;21.80;;
38053;SDS011;23859;50.672;7.164;2023-04-16T07:53:50;47.00;;;22.80;;
38053;SDS011;23859;50.672;7.164;2023-04-16T07:56:16;41.20;;;22.27;;
38053;SDS011;23859;50.672;7.164;2023-04-16T07:58:42;43.17;;;23.17;;
38053;SDS011;23859;50.672;7.164;2023-04-16T08:01:08;56.25;;;25.10;;
38053;SDS011;23859;50.672;7.164;2023-04-16T08:03:34;53.95;;;27.00;;
38053;SDS011;23859;50.672;7.164;2023-04-16T08:06:00;66.32;;;29.63;;
38053;SDS011;23859;50.672;7.164;2023-04-16T08:08:26;64.32;;;29.90;;
38053;SDS011;23859;50.672;7.164;2023-04-16T08:10:53;63.40;;;30.20;;
38053;SDS011;23859;50.672;7.164;2023-04-16T08:13:21;59.05;;;29.33;;
38053;SDS011;23859;50.672;7.164;2023-04-16T08:15:47;60.33;;;30.17;;
38053;SDS011;23859;50.672;7.164;2023-04-16T08:18:14;63.60;;;29.77;;
38053;SDS011;23859;50.672;7.164;2023-04-16T08:20:40;64.32;;;31.75;;
38053;SDS011;23859;50.672;7.164;2023-04-16T08:23:06;53.33;;;27.38;;
38053;SDS011;23859;50.672;7.164;2023-04-16T08:25:34;51.47;;;27.25;;
38053;SDS011;23859;50.672;7.164;2023-04-16T08:28:00;49.35;;;24.92;;
38053;SDS011;23859;50.672;7.164;2023-04-16T08:30:26;40.70;;;21.90;;
38053;SDS011;23859;50.672;7.164;2023-04-16T08:32:52;41.03;;;20.67;;
38053;SDS011;23859;50.672;7.164;2023-04-16T08:35:19;32.65;;;17.60;;
38053;SDS011;23859;50.672;7.164;2023-04-16T08:37:45;31.58;;;17.98;;
38053;SDS011;23859;50.672;7.164;2023-04-16T08:40:11;31.00;;;17.40;;
38053;SDS011;23859;50.672;7.164;2023-04-16T08:42:53;29.48;;;16.15;;
38053;SDS011;23859;50.672;7.164;2023-04-16T08:45:22;29.77;;;17.25;;
38053;SDS011;23859;50.672;7.164;2023-04-16T08:47:50;28.95;;;16.10;;
38053;SDS011;23859;50.672;7.164;2023-04-16T08:50:23;33.55;;;17.60;;
38053;SDS011;23859;50.672;7.164;2023-04-16T08:55:40;31.02;;;16.63;;
38053;SDS011;23859;50.672;7.164;2023-04-16T08:58:14;34.30;;;18.10;;
38053;SDS011;23859;50.672;7.164;2023-04-16T09:00:45;32.92;;;18.35;;
38053;SDS011;23859;50.672;7.164;2023-04-16T09:03:12;36.70;;;19.95;;
38053;SDS011;23859;50.672;7.164;2023-04-16T09:05:38;35.08;;;20.75;;
38053;SDS011;23859;50.672;7.164;2023-04-16T09:08:05;39.05;;;21.35;;
38053;SDS011;23859;50.672;7.164;2023-04-16T09:10:32;44.42;;;22.88;;
38053;SDS011;23859;50.672;7.164;2023-04-16T09:12:58;47.13;;;24.20;;
38053;SDS011;23859;50.672;7.164;2023-04-16T09:15:25;44.67;;;23.52;;
38053;SDS011;23859;50.672;7.164;2023-04-16T09:17:51;49.63;;;23.40;;
38053;SDS011;23859;50.672;7.164;2023-04-16T09:20:18;47.58;;;24.45;;
38053;SDS011;23859;50.672;7.164;2023-04-16T09:22:45;42.75;;;23.05;;
38053;SDS011;23859;50.672;7.164;2023-04-16T09:25:11;44.38;;;25.25;;
38053;SDS011;23859;50.672;7.164;2023-04-16T09:27:38;48.17;;;25.88;;
38053;SDS011;23859;50.672;7.164;2023-04-16T09:30:23;49.35;;;26.77;;
38053;SDS011;23859;50.672;7.164;2023-04-16T09:32:50;53.33;;;27.42;;
38053;SDS011;23859;50.672;7.164;2023-04-16T09:35:43;45.22;;;26.45;;
38053;SDS011;23859;50.672;7.164;2023-04-16T09:38:11;53.47;;;28.10;;
38053;SDS011;23859;50.672;7.164;2023-04-16T09:40:37;54.08;;;29.05;;
38053;SDS011;23859;50.672;7.164;2023-04-16T09:43:10;52.58;;;29.40;;
38053;SDS011;23859;50.672;7.164;2023-04-16T09:45:47;54.10;;;29.15;;
38053;SDS011;23859;50.672;7.164;2023-04-16T09:48:14;53.85;;;30.42;;
38053;SDS011;23859;50.672;7.164;2023-04-16T09:50:51;55.45;;;30.20;;
38053;SDS011;23859;50.672;7.164;2023-04-16T09:53:24;59.53;;;31.73;;
38053;SDS011;23859;50.672;7.164;2023-04-16T09:55:52;59.85;;;30.38;;
38053;SDS011;23859;50.672;7.164;2023-04-16T09:58:22;59.20;;;32.17;;
38053;SDS011;23859;50.672;7.164;2023-04-16T10:00:48;58.13;;;31.80;;
38053;SDS011;23859;50.672;7.164;2023-04-16T10:03:30;63.95;;;34.25;;
38053;SDS011;23859;50.672;7.164;2023-04-16T10:08:46;54.13;;;31.13;;
38053;SDS011;23859;50.672;7.164;2023-04-16T10:11:13;55.20;;;32.63;;
38053;SDS011;23859;50.672;7.164;2023-04-16T10:13:40;56.42;;;32.22;;
38053;SDS011;23859;50.672;7.164;2023-04-16T10:16:07;56.45;;;33.08;;
38053;SDS011;23859;50.672;7.164;2023-04-16T10:18:37;53.30;;;30.80;;
38053;SDS011;23859;50.672;7.164;2023-04-16T10:21:05;52.22;;;30.83;;
38053;SDS011;23859;50.672;7.164;2023-04-16T10:23:32;60.80;;;33.30;;
38053;SDS011;23859;50.672;7.164;2023-04-16T10:26:00;56.50;;;32.40;;
38053;SDS011;23859;50.672;7.164;2023-04-16T10:28:26;50.90;;;29.20;;
38053;SDS011;23859;50.672;7.164;2023-04-16T10:30:53;47.10;;;27.00;;
38053;SDS011;23859;50.672;7.164;2023-04-16T10:33:22;48.75;;;28.98;;
38053;SDS011;23859;50.672;7.164;2023-04-16T10:38:39;50.97;;;30.70;;
38053;SDS011;23859;50.672;7.164;2023-04-16T10:41:08;53.55;;;28.65;;
38053;SDS011;23859;50.672;7.164;2023-04-16T10:43:47;53.97;;;30.98;;
38053;SDS011;23859;50.672;7.164;2023-04-16T10:46:30;52.50;;;30.95;;
38053;SDS011;23859;50.672;7.164;2023-04-16T10:49:12;53.20;;;31.25;;
38053;SDS011;23859;50.672;7.164;2023-04-16T10:51:41;54.03;;;32.88;;
38053;SDS011;23859;50.672;7.164;2023-04-16T10:56:43;60.65;;;35.35;;
38053;SDS011;23859;50.672;7.164;2023-04-16T10:59:10;66.18;;;37.05;;
38053;SDS011;23859;50.672;7.164;2023-04-16T11:01:40;66.07;;;36.80;;
38053;SDS011;23859;50.672;7.164;2023-04-16T11:12:24;61.20;;;35.65;;
38053;SDS011;23859;50.672;7.164;2023-04-16T11:15:00;68.50;;;36.97;;
38053;SDS011;23859;50.672;7.164;2023-04-16T11:20:02;60.50;;;34.45;;
38053;SDS011;23859;50.672;7.164;2023-04-16T11:22:40;59.83;;;35.33;;
38053;SDS011;23859;50.672;7.164;2023-04-16T11:25:07;59.13;;;36.40;;
38053;SDS011;23859;50.672;7.164;2023-04-16T11:27:33;62.60;;;35.50;;
38053;SDS011;23859;50.672;7.164;2023-04-16T11:30:00;60.65;;;35.55;;
38053;SDS011;23859;50.672;7.164;2023-04-16T11:32:31;51.22;;;32.47;;
38053;SDS011;23859;50.672;7.164;2023-04-16T11:34:59;52.63;;;33.25;;
38053;SDS011;23859;50.672;7.164;2023-04-16T11:37:31;59.72;;;34.70;;
38053;SDS011;23859;50.672;7.164;2023-04-16T11:40:02;52.08;;;32.47;;
38053;SDS011;23859;50.672;7.164;2023-04-16T11:42:33;53.33;;;33.53;;
38053;SDS011;23859;50.672;7.164;2023-04-16T11:45:07;58.10;;;33.17;;
38053;SDS011;23859;50.672;7.164;2023-04-16T11:47:41;53.53;;;33.03;;
38053;SDS011;23859;50.672;7.164;2023-04-16T11:50:22;52.70;;;30.70;;
38053;SDS011;23859;50.672;7.164;2023-04-16T11:52:49;48.57;;;30.90;;
38053;SDS011;23859;50.672;7.164;2023-04-16T11:55:17;46.97;;;28.98;;
38053;SDS011;23859;50.672;7.164;2023-04-16T11:57:43;45.28;;;28.92;;
38053;SDS011;23859;50.672;7.164;2023-04-16T12:00:10;43.80;;;28.02;;
38053;SDS011;23859;50.672;7.164;2023-04-16T12:02:44;40.58;;;26.90;;
38053;SDS011;23859;50.672;7.164;2023-04-16T12:05:32;42.78;;;26.73;;
38053;SDS011;23859;50.672;7.164;2023-04-16T12:08:01;46.45;;;28.42;;
38053;SDS011;23859;50.672;7.164;2023-04-16T12:10:32;44.28;;;27.88;;
38053;SDS011;23859;50.672;7.164;2023-04-16T12:13:12;43.53;;;27.70;;
38053;SDS011;23859;50.672;7.164;2023-04-16T12:15:46;41.22;;;27.67;;
38053;SDS011;23859;50.672;7.164;2023-04-16T12:18:14;46.85;;;28.65;;
38053;SDS011;23859;50.672;7.164;2023-04-16T12:20:41;41.53;;;27.77;;
38053;SDS011;23859;50.672;7.164;2023-04-16T12:23:07;50.28;;;29.95;;
38053;SDS011;23859;50.672;7.164;2023-04-16T12:25:35;50.85;;;29.67;;
38053;SDS011;23859;50.672;7.164;2023-04-16T12:28:01;47.72;;;30.73;;
38053;SDS011;23859;50.672;7.164;2023-04-16T12:30:28;45.42;;;29.20;;
38053;SDS011;23859;50.672;7.164;2023-04-16T12:33:14;44.65;;;30.05;;
38053;SDS011;23859;50.672;7.164;2023-04-16T12:35:41;46.38;;;30.77;;
38053;SDS011;23859;50.672;7.164;2023-04-16T12:38:08;42.35;;;29.25;;
38053;SDS011;23859;50.672;7.164;2023-04-16T12:40:34;48.03;;;31.38;;
38053;SDS011;23859;50.672;7.164;2023-04-16T12:43:01;46.80;;;30.52;;
38053;SDS011;23859;50.672;7.164;2023-04-16T12:45:27;46.40;;;29.42;;
38053;SDS011;23859;50.672;7.164;2023-04-16T12:47:53;51.05;;;30.75;;
38053;SDS011;23859;50.672;7.164;2023-04-16T12:50:19;45.17;;;29.17;;
38053;SDS011;23859;50.672;7.164;2023-04-16T12:52:46;46.85;;;30.20;;
38053;SDS011;23859;50.672;7.164;2023-04-16T12:55:12;48.40;;;31.17;;
38053;SDS011;23859;50.672;7.164;2023-04-16T12:57:39;48.92;;;30.98;;
38053;SDS011;23859;50.672;7.164;2023-04-16T13:00:05;53.25;;;32.72;;
38053;SDS011;23859;50.672;7.164;2023-04-16T13:02:34;45.25;;;30.33;;
38053;SDS011;23859;50.672;7.164;2023-04-16T13:05:00;45.63;;;30.60;;
38053;SDS011;23859;50.672;7.164;2023-04-16T13:07:26;45.42;;;30.25;;
38053;SDS011;23859;50.672;7.164;2023-04-16T13:09:55;51.22;;;31.13;;
38053;SDS011;23859;50.672;7.164;2023-04-16T13:12:21;46.97;;;31.27;;
38053;SDS011;23859;50.672;7.164;2023-04-16T13:14:47;47.00;;;28.73;;
38053;SDS011;23859;50.672;7.164;2023-04-16T13:17:14;47.20;;;28.30;;
38053;SDS011;23859;50.672;7.164;2023-04-16T13:19:40;41.90;;;28.38;;
38053;SDS011;23859;50.672;7.164;2023-04-16T13:22:06;45.30;;;28.45;;
38053;SDS011;23859;50.672;7.164;2023-04-16T13:24:33;40.33;;;27.70;;
38053;SDS011;23859;50.672;7.164;2023-04-16T13:26:59;42.08;;;29.00;;
38053;SDS011;23859;50.672;7.164;2023-04-16T13:29:25;41.78;;;27.90;;
38053;SDS011;23859;50.672;7.164;2023-04-16T13:31:51;39.80;;;27.95;;
38053;SDS011;23859;50.672;7.164;2023-04-16T13:34:17;40.65;;;26.17;;
38053;SDS011;23859;50.672;7.164;2023-04-16T13:36:43;35.33;;;25.20;;
38053;SDS011;23859;50.672;7.164;2023-04-16T13:39:09;39.00;;;24.60;;
38053;SDS011;23859;50.672;7.164;2023-04-16T13:41:36;41.92;;;26.13;;
38053;SDS011;23859;50.672;7.164;2023-04-16T13:44:02;37.97;;;22.55;;
38053;SDS011;23859;50.672;7.164;2023-04-16T13:46:28;36.08;;;23.33;;
38053;SDS011;23859;50.672;7.164;2023-04-16T13:48:54;35.35;;;24.63;;
38053;SDS011;23859;50.672;7.164;2023-04-16T13:51:21;34.85;;;25.80;;
38053;SDS011;23859;50.672;7.164;2023-04-16T13:53:47;37.53;;;26.45;;
38053;SDS011;23859;50.672;7.164;2023-04-16T13:56:13;37.97;;;27.17;;
38053;SDS011;23859;50.672;7.164;2023-04-16T13:58:39;40.50;;;27.48;;
38053;SDS011;23859;50.672;7.164;2023-04-16T14:01:05;38.53;;;25.60;;
38053;SDS011;23859;50.672;7.164;2023-04-16T14:03:32;36.83;;;26.40;;
38053;SDS011;23859;50.672;7.164;2023-04-16T14:06:02;39.47;;;25.73;;
38053;SDS011;23859;50.672;7.164;2023-04-16T14:08:29;31.73;;;22.55;;
38053;SDS011;23859;50.672;7.164;2023-04-16T14:10:55;34.50;;;22.27;;
38053;SDS011;23859;50.672;7.164;2023-04-16T14:13:22;37.38;;;22.45;;
38053;SDS011;23859;50.672;7.164;2023-04-16T14:15:48;30.15;;;20.40;;
38053;SDS011;23859;50.672;7.164;2023-04-16T14:18:17;28.63;;;21.25;;
38053;SDS011;23859;50.672;7.164;2023-04-16T14:20:43;29.98;;;20.10;;
38053;SDS011;23859;50.672;7.164;2023-04-16T14:23:09;32.92;;;21.63;;
38053;SDS011;23859;50.672;7.164;2023-04-16T14:25:36;31.92;;;23.25;;
38053;SDS011;23859;50.672;7.164;2023-04-16T14:28:02;34.72;;;23.90;;
38053;SDS011;23859;50.672;7.164;2023-04-16T14:30:29;36.15;;;25.60;;
38053;SDS011;23859;50.672;7.164;2023-04-16T14:32:55;41.25;;;25.77;;
38053;SDS011;23859;50.672;7.164;2023-04-16T14:35:21;39.15;;;25.80;;
38053;SDS011;23859;50.672;7.164;2023-04-16T14:37:48;39.05;;;26.60;;
38053;SDS011;23859;50.672;7.164;2023-04-16T14:40:14;34.83;;;23.88;;
38053;SDS011;23859;50.672;7.164;2023-04-16T14:42:40;34.28;;;23.67;;